sensor_id;sensor_type;location;lat;lon;timestamp;P1;durP1;ratioP1;P2;durP2;ratioP2
56653;SDS011;45096;52.302;4.634;2023-09-08T00:01:42;5.30;;;4.85;;
56653;SDS011;45096;52.302;4.634;2023-09-08T00:04:08;5.72;;;5.30;;
56653;SDS011;45096;52.302;4.634;2023-09-08T00:06:33;5.13;;;4.72;;
56653;SDS011;45096;52.302;4.634;2023-09-08T00:08:58;5.65;;;5.15;;
56653;SDS011;45096;52.302;4.634;2023-09-08T00:11:24;5.40;;;5.00;;
56653;SDS011;45096;52.302;4.634;2023-09-08T00:13:49;5.60;;;5.10;;
56653;SDS011;45096;52.302;4.634;2023-09-08T00:16:15;5.20;;;4.80;;
56653;SDS011;45096;52.302;4.634;2023-09-08T00:18:41;5.28;;;4.88;;
56653;SDS011;45096;52.302;4.634;2023-09-08T00:21:07;4.90;;;4.50;;
56653;SDS011;45096;52.302;4.634;2023-09-08T00:23:32;5.10;;;4.60;;
56653;SDS011;45096;52.302;4.634;2023-09-08T00:25:58;5.10;;;4.80;;
56653;SDS011;45096;52.302;4.634;2023-09-08T00:28:23;5.13;;;4.72;;
56653;SDS011;45096;52.302;4.634;2023-09-08T00:30:49;5.50;;;5.10;;
56653;SDS011;45096;52.302;4.634;2023-09-08T00:33:14;5.47;;;4.97;;
56653;SDS011;45096;52.302;4.634;2023-09-08T00:35:41;4.90;;;4.60;;
56653;SDS011;45096;52.302;4.634;2023-09-08T00:38:09;5.07;;;4.75;;
56653;SDS011;45096;52.302;4.634;2023-09-08T00:40:34;4.78;;;4.47;;
56653;SDS011;45096;52.302;4.634;2023-09-08T00:43:00;5.80;;;5.38;;
56653;SDS011;45096;52.302;4.634;2023-09-08T00:45:26;5.03;;;4.70;;
56653;SDS011;45096;52.302;4.634;2023-09-08T00:47:51;4.75;;;4.28;;
56653;SDS011;45096;52.302;4.634;2023-09-08T00:50:17;5.28;;;4.88;;
56653;SDS011;45096;52.302;4.634;2023-09-08T00:52:44;6.07;;;5.20;;
56653;SDS011;45096;52.302;4.634;2023-09-08T00:55:09;5.30;;;4.90;;
56653;SDS011;45096;52.302;4.634;2023-09-08T00:57:35;5.85;;;4.82;;
56653;SDS011;45096;52.302;4.634;2023-09-08T01:00:00;5.80;;;5.18;;
56653;SDS011;45096;52.302;4.634;2023-09-08T01:02:26;5.28;;;4.78;;
56653;SDS011;45096;52.302;4.634;2023-09-08T01:04:52;5.45;;;5.05;;
56653;SDS011;45096;52.302;4.634;2023-09-08T01:07:17;5.13;;;4.72;;
56653;SDS011;45096;52.302;4.634;2023-09-08T01:09:45;5.07;;;4.78;;
56653;SDS011;45096;52.302;4.634;2023-09-08T01:12:11;5.15;;;4.75;;
56653;SDS011;45096;52.302;4.634;2023-09-08T01:14:37;5.20;;;4.80;;
56653;SDS011;45096;52.302;4.634;2023-09-08T01:17:02;5.35;;;4.95;;
56653;SDS011;45096;52.302;4.634;2023-09-08T01:19:28;6.20;;;5.60;;
56653;SDS011;45096;52.302;4.634;2023-09-08T01:22:06;5.68;;;5.18;;
56653;SDS011;45096;52.302;4.634;2023-09-08T01:24:40;5.45;;;4.95;;
56653;SDS011;45096;52.302;4.634;2023-09-08T01:27:24;5.47;;;5.07;;
56653;SDS011;45096;52.302;4.634;2023-09-08T01:29:50;5.63;;;5.22;;
56653;SDS011;45096;52.302;4.634;2023-09-08T01:32:16;5.47;;;5.07;;
56653;SDS011;45096;52.302;4.634;2023-09-08T01:34:42;5.40;;;5.00;;
56653;SDS011;45096;52.302;4.634;2023-09-08T01:37:08;5.40;;;5.00;;
56653;SDS011;45096;52.302;4.634;2023-09-08T01:39:33;5.45;;;4.95;;
56653;SDS011;45096;52.302;4.634;2023-09-08T01:42:00;5.38;;;4.90;;
56653;SDS011;45096;52.302;4.634;2023-09-08T01:44:25;4.80;;;4.40;;
56653;SDS011;45096;52.302;4.634;2023-09-08T01:46:51;5.68;;;5.25;;
56653;SDS011;45096;52.302;4.634;2023-09-08T01:49:16;5.43;;;4.93;;
56653;SDS011;45096;52.302;4.634;2023-09-08T01:51:42;5.97;;;4.97;;
56653;SDS011;45096;52.302;4.634;2023-09-08T01:54:07;5.47;;;5.00;;
56653;SDS011;45096;52.302;4.634;2023-09-08T01:56:32;5.20;;;4.70;;
56653;SDS011;45096;52.302;4.634;2023-09-08T01:58:59;5.10;;;4.70;;
56653;SDS011;45096;52.302;4.634;2023-09-08T02:01:24;6.32;;;5.72;;
56653;SDS011;45096;52.302;4.634;2023-09-08T02:03:50;5.35;;;4.95;;
56653;SDS011;45096;52.302;4.634;2023-09-08T02:06:15;5.78;;;5.32;;
56653;SDS011;45096;52.302;4.634;2023-09-08T02:08:41;4.72;;;4.43;;
56653;SDS011;45096;52.302;4.634;2023-09-08T02:11:06;5.43;;;5.03;;
56653;SDS011;45096;52.302;4.634;2023-09-08T02:13:31;5.53;;;5.10;;
56653;SDS011;45096;52.302;4.634;2023-09-08T02:15:58;5.88;;;5.45;;
56653;SDS011;45096;52.302;4.634;2023-09-08T02:18:25;5.90;;;5.30;;
56653;SDS011;45096;52.302;4.634;2023-09-08T02:20:51;5.93;;;5.43;;
56653;SDS011;45096;52.302;4.634;2023-09-08T02:23:16;5.38;;;4.97;;
56653;SDS011;45096;52.302;4.634;2023-09-08T02:25:41;5.53;;;5.13;;
56653;SDS011;45096;52.302;4.634;2023-09-08T02:28:07;6.15;;;5.55;;
56653;SDS011;45096;52.302;4.634;2023-09-08T02:30:32;6.00;;;5.53;;
56653;SDS011;45096;52.302;4.634;2023-09-08T02:32:59;5.57;;;5.07;;
56653;SDS011;45096;52.302;4.634;2023-09-08T02:35:24;5.07;;;4.57;;
56653;SDS011;45096;52.302;4.634;2023-09-08T02:37:50;4.72;;;4.32;;
56653;SDS011;45096;52.302;4.634;2023-09-08T02:40:15;5.60;;;5.18;;
56653;SDS011;45096;52.302;4.634;2023-09-08T02:42:41;5.18;;;4.78;;
56653;SDS011;45096;52.302;4.634;2023-09-08T02:45:06;6.75;;;5.53;;
56653;SDS011;45096;52.302;4.634;2023-09-08T02:47:32;5.65;;;5.15;;
56653;SDS011;45096;52.302;4.634;2023-09-08T02:49:59;5.20;;;4.80;;
56653;SDS011;45096;52.302;4.634;2023-09-08T02:52:24;5.88;;;5.38;;
56653;SDS011;45096;52.302;4.634;2023-09-08T02:54:50;5.38;;;4.97;;
56653;SDS011;45096;52.302;4.634;2023-09-08T02:57:15;6.22;;;5.65;;
56653;SDS011;45096;52.302;4.634;2023-09-08T02:59:40;5.53;;;5.13;;
56653;SDS011;45096;52.302;4.634;2023-09-08T03:02:06;5.50;;;5.10;;
56653;SDS011;45096;52.302;4.634;2023-09-08T03:04:31;5.80;;;5.28;;
56653;SDS011;45096;52.302;4.634;2023-09-08T03:06:58;5.68;;;5.18;;
56653;SDS011;45096;52.302;4.634;2023-09-08T03:09:23;6.00;;;5.43;;
56653;SDS011;45096;52.302;4.634;2023-09-08T03:11:49;6.07;;;5.30;;
56653;SDS011;45096;52.302;4.634;2023-09-08T03:14:14;5.82;;;5.32;;
56653;SDS011;45096;52.302;4.634;2023-09-08T03:16:40;6.85;;;6.25;;
56653;SDS011;45096;52.302;4.634;2023-09-08T03:19:05;6.40;;;5.90;;
56653;SDS011;45096;52.302;4.634;2023-09-08T03:21:31;5.93;;;5.43;;
56653;SDS011;45096;52.302;4.634;2023-09-08T03:23:57;5.97;;;5.45;;
56653;SDS011;45096;52.302;4.634;2023-09-08T03:26:23;6.43;;;5.82;;
56653;SDS011;45096;52.302;4.634;2023-09-08T03:28:48;6.75;;;6.15;;
56653;SDS011;45096;52.302;4.634;2023-09-08T03:31:13;6.55;;;5.95;;
56653;SDS011;45096;52.302;4.634;2023-09-08T03:33:39;5.72;;;5.32;;
56653;SDS011;45096;52.302;4.634;2023-09-08T03:36:04;6.00;;;5.60;;
56653;SDS011;45096;52.302;4.634;2023-09-08T03:38:30;5.47;;;5.07;;
56653;SDS011;45096;52.302;4.634;2023-09-08T03:40:58;6.22;;;5.72;;
56653;SDS011;45096;52.302;4.634;2023-09-08T03:43:23;7.22;;;6.50;;
56653;SDS011;45096;52.302;4.634;2023-09-08T03:45:49;6.93;;;6.32;;
56653;SDS011;45096;52.302;4.634;2023-09-08T03:48:14;6.60;;;6.07;;
56653;SDS011;45096;52.302;4.634;2023-09-08T03:50:39;6.50;;;6.00;;
56653;SDS011;45096;52.302;4.634;2023-09-08T03:53:05;6.90;;;6.30;;
56653;SDS011;45096;52.302;4.634;2023-09-08T03:55:30;6.65;;;6.05;;
56653;SDS011;45096;52.302;4.634;2023-09-08T03:57:57;6.57;;;6.07;;
56653;SDS011;45096;52.302;4.634;2023-09-08T04:00:23;7.15;;;6.55;;
56653;SDS011;45096;52.302;4.634;2023-09-08T04:02:48;6.78;;;6.22;;
56653;SDS011;45096;52.302;4.634;2023-09-08T04:05:14;6.28;;;5.75;;
56653;SDS011;45096;52.302;4.634;2023-09-08T04:07:40;7.50;;;6.60;;
56653;SDS011;45096;52.302;4.634;2023-09-08T04:10:06;5.85;;;5.45;;
56653;SDS011;45096;52.302;4.634;2023-09-08T04:12:32;6.75;;;6.15;;
56653;SDS011;45096;52.302;4.634;2023-09-08T04:14:59;7.10;;;6.50;;
56653;SDS011;45096;52.302;4.634;2023-09-08T04:17:25;6.38;;;5.78;;
56653;SDS011;45096;52.302;4.634;2023-09-08T04:19:50;5.97;;;5.50;;
56653;SDS011;45096;52.302;4.634;2023-09-08T04:22:15;8.80;;;7.88;;
56653;SDS011;45096;52.302;4.634;2023-09-08T04:24:41;6.85;;;6.28;;
56653;SDS011;45096;52.302;4.634;2023-09-08T04:27:06;6.63;;;6.03;;
56653;SDS011;45096;52.302;4.634;2023-09-08T04:29:32;7.18;;;6.47;;
56653;SDS011;45096;52.302;4.634;2023-09-08T04:31:59;6.80;;;6.18;;
56653;SDS011;45096;52.302;4.634;2023-09-08T04:34:24;7.20;;;6.65;;
56653;SDS011;45096;52.302;4.634;2023-09-08T04:36:50;6.40;;;5.95;;
56653;SDS011;45096;52.302;4.634;2023-09-08T04:39:15;6.32;;;5.72;;
56653;SDS011;45096;52.302;4.634;2023-09-08T04:41:40;7.22;;;6.53;;
56653;SDS011;45096;52.302;4.634;2023-09-08T04:44:06;6.63;;;6.13;;
56653;SDS011;45096;52.302;4.634;2023-09-08T04:46:31;6.53;;;5.95;;
56653;SDS011;45096;52.302;4.634;2023-09-08T04:48:58;6.93;;;6.32;;
56653;SDS011;45096;52.302;4.634;2023-09-08T04:51:23;7.13;;;6.53;;
56653;SDS011;45096;52.302;4.634;2023-09-08T04:53:49;6.47;;;5.97;;
56653;SDS011;45096;52.302;4.634;2023-09-08T04:56:14;6.97;;;6.38;;
56653;SDS011;45096;52.302;4.634;2023-09-08T04:58:40;7.50;;;6.90;;
56653;SDS011;45096;52.302;4.634;2023-09-08T05:01:05;6.70;;;6.10;;
56653;SDS011;45096;52.302;4.634;2023-09-08T05:03:30;7.15;;;6.53;;
56653;SDS011;45096;52.302;4.634;2023-09-08T05:05:57;6.28;;;5.78;;
56653;SDS011;45096;52.302;4.634;2023-09-08T05:08:23;6.85;;;6.25;;
56653;SDS011;45096;52.302;4.634;2023-09-08T05:10:48;6.30;;;5.80;;
56653;SDS011;45096;52.302;4.634;2023-09-08T05:13:15;7.18;;;6.55;;
56653;SDS011;45096;52.302;4.634;2023-09-08T05:15:41;7.07;;;6.57;;
56653;SDS011;45096;52.302;4.634;2023-09-08T05:18:06;6.65;;;6.05;;
56653;SDS011;45096;52.302;4.634;2023-09-08T05:20:32;5.97;;;5.57;;
56653;SDS011;45096;52.302;4.634;2023-09-08T05:22:59;7.20;;;6.53;;
56653;SDS011;45096;52.302;4.634;2023-09-08T05:25:24;7.25;;;6.65;;
56653;SDS011;45096;52.302;4.634;2023-09-08T05:27:49;7.43;;;6.82;;
56653;SDS011;45096;52.302;4.634;2023-09-08T05:30:15;6.75;;;6.25;;
56653;SDS011;45096;52.302;4.634;2023-09-08T05:32:40;9.10;;;8.20;;
56653;SDS011;45096;52.302;4.634;2023-09-08T05:35:06;7.25;;;6.63;;
56653;SDS011;45096;52.302;4.634;2023-09-08T05:37:31;7.53;;;6.97;;
56653;SDS011;45096;52.302;4.634;2023-09-08T05:39:58;7.05;;;6.45;;
56653;SDS011;45096;52.302;4.634;2023-09-08T05:42:24;6.55;;;5.95;;
56653;SDS011;45096;52.302;4.634;2023-09-08T05:44:49;7.32;;;6.63;;
56653;SDS011;45096;52.302;4.634;2023-09-08T05:47:14;7.43;;;6.80;;
56653;SDS011;45096;52.302;4.634;2023-09-08T05:49:40;6.40;;;5.82;;
56653;SDS011;45096;52.302;4.634;2023-09-08T05:52:05;8.85;;;7.95;;
56653;SDS011;45096;52.302;4.634;2023-09-08T05:54:31;10.80;;;8.98;;
56653;SDS011;45096;52.302;4.634;2023-09-08T05:56:57;8.80;;;8.00;;
56653;SDS011;45096;52.302;4.634;2023-09-08T05:59:23;9.18;;;7.70;;
56653;SDS011;45096;52.302;4.634;2023-09-08T06:01:48;9.38;;;8.40;;
56653;SDS011;45096;52.302;4.634;2023-09-08T06:04:14;9.68;;;7.65;;
56653;SDS011;45096;52.302;4.634;2023-09-08T06:06:39;11.30;;;9.63;;
56653;SDS011;45096;52.302;4.634;2023-09-08T06:09:05;9.90;;;8.00;;
56653;SDS011;45096;52.302;4.634;2023-09-08T06:11:30;9.75;;;8.57;;
56653;SDS011;45096;52.302;4.634;2023-09-08T06:13:57;10.02;;;7.55;;
56653;SDS011;45096;52.302;4.634;2023-09-08T06:16:22;8.82;;;7.43;;
56653;SDS011;45096;52.302;4.634;2023-09-08T06:18:48;8.82;;;7.93;;
56653;SDS011;45096;52.302;4.634;2023-09-08T06:21:13;11.07;;;8.40;;
56653;SDS011;45096;52.302;4.634;2023-09-08T06:23:39;8.05;;;7.30;;
56653;SDS011;45096;52.302;4.634;2023-09-08T06:26:04;8.10;;;7.30;;
56653;SDS011;45096;52.302;4.634;2023-09-08T06:28:30;7.75;;;7.05;;
56653;SDS011;45096;52.302;4.634;2023-09-08T06:30:56;7.78;;;7.00;;
56653;SDS011;45096;52.302;4.634;2023-09-08T06:33:22;9.20;;;8.23;;
56653;SDS011;45096;52.302;4.634;2023-09-08T06:35:47;8.88;;;6.95;;
56653;SDS011;45096;52.302;4.634;2023-09-08T06:38:13;7.75;;;6.95;;
56653;SDS011;45096;52.302;4.634;2023-09-08T06:40:38;8.45;;;7.55;;
56653;SDS011;45096;52.302;4.634;2023-09-08T06:43:04;10.38;;;7.78;;
56653;SDS011;45096;52.302;4.634;2023-09-08T06:45:29;8.45;;;7.55;;
56653;SDS011;45096;52.302;4.634;2023-09-08T06:47:56;9.77;;;8.13;;
56653;SDS011;45096;52.302;4.634;2023-09-08T06:50:22;9.63;;;7.07;;
56653;SDS011;45096;52.302;4.634;2023-09-08T06:52:47;8.02;;;7.32;;
56653;SDS011;45096;52.302;4.634;2023-09-08T06:55:13;7.88;;;7.07;;
56653;SDS011;45096;52.302;4.634;2023-09-08T06:57:38;9.18;;;8.27;;
56653;SDS011;45096;52.302;4.634;2023-09-08T07:00:04;9.73;;;8.57;;
56653;SDS011;45096;52.302;4.634;2023-09-08T07:02:30;8.00;;;7.30;;
56653;SDS011;45096;52.302;4.634;2023-09-08T07:04:57;8.80;;;7.90;;
56653;SDS011;45096;52.302;4.634;2023-09-08T07:07:22;8.73;;;7.78;;
56653;SDS011;45096;52.302;4.634;2023-09-08T07:09:48;7.93;;;7.22;;
56653;SDS011;45096;52.302;4.634;2023-09-08T07:12:13;10.07;;;9.07;;
56653;SDS011;45096;52.302;4.634;2023-09-08T07:14:39;10.75;;;9.65;;
56653;SDS011;45096;52.302;4.634;2023-09-08T07:17:04;9.13;;;8.32;;
56653;SDS011;45096;52.302;4.634;2023-09-08T07:19:30;7.38;;;6.57;;
56653;SDS011;45096;52.302;4.634;2023-09-08T07:21:56;7.40;;;6.70;;
56653;SDS011;45096;52.302;4.634;2023-09-08T07:24:22;8.23;;;7.45;;
56653;SDS011;45096;52.302;4.634;2023-09-08T07:26:47;8.38;;;7.57;;
56653;SDS011;45096;52.302;4.634;2023-09-08T07:29:13;8.27;;;7.13;;
56653;SDS011;45096;52.302;4.634;2023-09-08T07:31:38;9.27;;;8.43;;
56653;SDS011;45096;52.302;4.634;2023-09-08T07:34:04;9.73;;;8.88;;
56653;SDS011;45096;52.302;4.634;2023-09-08T07:36:30;10.68;;;9.68;;
56653;SDS011;45096;52.302;4.634;2023-09-08T07:38:56;8.73;;;7.97;;
56653;SDS011;45096;52.302;4.634;2023-09-08T07:41:22;8.88;;;8.02;;
56653;SDS011;45096;52.302;4.634;2023-09-08T07:43:47;8.30;;;7.53;;
56653;SDS011;45096;52.302;4.634;2023-09-08T07:46:13;8.55;;;7.75;;
56653;SDS011;45096;52.302;4.634;2023-09-08T07:48:38;7.75;;;7.05;;
56653;SDS011;45096;52.302;4.634;2023-09-08T07:51:04;9.77;;;8.77;;
56653;SDS011;45096;52.302;4.634;2023-09-08T07:53:30;7.97;;;7.22;;
56653;SDS011;45096;52.302;4.634;2023-09-08T07:55:57;9.10;;;8.23;;
56653;SDS011;45096;52.302;4.634;2023-09-08T07:58:22;10.02;;;9.02;;
56653;SDS011;45096;52.302;4.634;2023-09-08T08:00:48;8.00;;;7.40;;
56653;SDS011;45096;52.302;4.634;2023-09-08T08:03:13;8.05;;;7.35;;
56653;SDS011;45096;52.302;4.634;2023-09-08T08:05:39;8.98;;;8.18;;
56653;SDS011;45096;52.302;4.634;2023-09-08T08:08:04;8.05;;;7.35;;
56653;SDS011;45096;52.302;4.634;2023-09-08T08:10:29;10.85;;;8.02;;
56653;SDS011;45096;52.302;4.634;2023-09-08T08:12:56;8.60;;;7.53;;
56653;SDS011;45096;52.302;4.634;2023-09-08T08:15:22;8.05;;;7.35;;
56653;SDS011;45096;52.302;4.634;2023-09-08T08:17:47;8.50;;;7.70;;
56653;SDS011;45096;52.302;4.634;2023-09-08T08:20:13;10.27;;;9.27;;
56653;SDS011;45096;52.302;4.634;2023-09-08T08:22:38;11.90;;;10.50;;
56653;SDS011;45096;52.302;4.634;2023-09-08T08:25:04;12.57;;;10.25;;
56653;SDS011;45096;52.302;4.634;2023-09-08T08:27:30;9.32;;;8.52;;
56653;SDS011;45096;52.302;4.634;2023-09-08T08:29:57;10.25;;;9.32;;
56653;SDS011;45096;52.302;4.634;2023-09-08T08:32:22;8.77;;;7.97;;
56653;SDS011;45096;52.302;4.634;2023-09-08T08:34:48;8.50;;;7.70;;
56653;SDS011;45096;52.302;4.634;2023-09-08T08:37:13;9.95;;;9.05;;
56653;SDS011;45096;52.302;4.634;2023-09-08T08:39:39;10.30;;;9.27;;
56653;SDS011;45096;52.302;4.634;2023-09-08T08:42:06;8.93;;;8.13;;
56653;SDS011;45096;52.302;4.634;2023-09-08T08:44:32;6.93;;;6.32;;
56653;SDS011;45096;52.302;4.634;2023-09-08T08:46:59;8.00;;;7.30;;
56653;SDS011;45096;52.302;4.634;2023-09-08T08:49:25;8.32;;;7.63;;
56653;SDS011;45096;52.302;4.634;2023-09-08T08:51:52;8.30;;;7.60;;
56653;SDS011;45096;52.302;4.634;2023-09-08T08:54:18;9.48;;;8.57;;
56653;SDS011;45096;52.302;4.634;2023-09-08T08:56:44;10.00;;;9.02;;
56653;SDS011;45096;52.302;4.634;2023-09-08T08:59:10;14.35;;;12.88;;
56653;SDS011;45096;52.302;4.634;2023-09-08T09:01:35;8.77;;;7.97;;
56653;SDS011;45096;52.302;4.634;2023-09-08T09:04:02;11.75;;;10.55;;
56653;SDS011;45096;52.302;4.634;2023-09-08T09:06:30;9.65;;;8.65;;
56653;SDS011;45096;52.302;4.634;2023-09-08T09:08:55;12.75;;;11.43;;
56653;SDS011;45096;52.302;4.634;2023-09-08T09:11:21;10.52;;;9.55;;
56653;SDS011;45096;52.302;4.634;2023-09-08T09:13:46;10.95;;;9.85;;
56653;SDS011;45096;52.302;4.634;2023-09-08T09:16:12;12.35;;;11.10;;
56653;SDS011;45096;52.302;4.634;2023-09-08T09:18:52;10.73;;;9.63;;
56653;SDS011;45096;52.302;4.634;2023-09-08T09:21:20;10.82;;;9.80;;
56653;SDS011;45096;52.302;4.634;2023-09-08T09:23:45;10.52;;;9.52;;
56653;SDS011;45096;52.302;4.634;2023-09-08T09:26:11;13.40;;;11.85;;
56653;SDS011;45096;52.302;4.634;2023-09-08T09:28:48;12.95;;;11.30;;
56653;SDS011;45096;52.302;4.634;2023-09-08T09:31:13;15.85;;;14.23;;
56653;SDS011;45096;52.302;4.634;2023-09-08T09:33:39;12.32;;;11.05;;
56653;SDS011;45096;52.302;4.634;2023-09-08T09:36:04;11.13;;;10.02;;
56653;SDS011;45096;52.302;4.634;2023-09-08T09:38:32;11.60;;;10.40;;
56653;SDS011;45096;52.302;4.634;2023-09-08T09:41:00;15.13;;;13.52;;
56653;SDS011;45096;52.302;4.634;2023-09-08T09:43:25;12.98;;;11.63;;
56653;SDS011;45096;52.302;4.634;2023-09-08T09:45:53;13.73;;;12.43;;
56653;SDS011;45096;52.302;4.634;2023-09-08T09:48:19;12.32;;;11.00;;
56653;SDS011;45096;52.302;4.634;2023-09-08T09:50:45;15.55;;;12.52;;
56653;SDS011;45096;52.302;4.634;2023-09-08T09:53:11;12.82;;;11.52;;
56653;SDS011;45096;52.302;4.634;2023-09-08T09:55:41;13.10;;;11.70;;
56653;SDS011;45096;52.302;4.634;2023-09-08T09:58:08;13.32;;;11.85;;
56653;SDS011;45096;52.302;4.634;2023-09-08T10:00:34;12.52;;;10.32;;
56653;SDS011;45096;52.302;4.634;2023-09-08T10:03:00;12.40;;;11.20;;
56653;SDS011;45096;52.302;4.634;2023-09-08T10:05:26;11.63;;;10.52;;
56653;SDS011;45096;52.302;4.634;2023-09-08T10:07:52;14.20;;;12.80;;
56653;SDS011;45096;52.302;4.634;2023-09-08T10:10:17;12.50;;;10.90;;
56653;SDS011;45096;52.302;4.634;2023-09-08T10:12:45;14.70;;;12.77;;
56653;SDS011;45096;52.302;4.634;2023-09-08T10:15:11;12.02;;;10.60;;
56653;SDS011;45096;52.302;4.634;2023-09-08T10:17:37;12.57;;;11.38;;
56653;SDS011;45096;52.302;4.634;2023-09-08T10:20:03;11.40;;;10.30;;
56653;SDS011;45096;52.302;4.634;2023-09-08T10:22:31;12.32;;;11.18;;
56653;SDS011;45096;52.302;4.634;2023-09-08T10:24:57;11.90;;;10.80;;
56653;SDS011;45096;52.302;4.634;2023-09-08T10:27:25;11.43;;;10.23;;
56653;SDS011;45096;52.302;4.634;2023-09-08T10:29:52;11.35;;;10.25;;
56653;SDS011;45096;52.302;4.634;2023-09-08T10:32:18;12.88;;;10.48;;
56653;SDS011;45096;52.302;4.634;2023-09-08T10:34:45;11.05;;;10.00;;
56653;SDS011;45096;52.302;4.634;2023-09-08T10:37:21;14.48;;;13.00;;
56653;SDS011;45096;52.302;4.634;2023-09-08T10:39:47;12.48;;;10.52;;
56653;SDS011;45096;52.302;4.634;2023-09-08T10:42:19;12.07;;;10.90;;
56653;SDS011;45096;52.302;4.634;2023-09-08T10:44:51;12.65;;;11.38;;
56653;SDS011;45096;52.302;4.634;2023-09-08T10:47:22;11.95;;;10.75;;
56653;SDS011;45096;52.302;4.634;2023-09-08T10:49:48;11.85;;;10.68;;
56653;SDS011;45096;52.302;4.634;2023-09-08T10:52:13;11.35;;;10.20;;
56653;SDS011;45096;52.302;4.634;2023-09-08T10:54:42;10.02;;;9.02;;
56653;SDS011;45096;52.302;4.634;2023-09-08T10:57:12;11.30;;;9.40;;
56653;SDS011;45096;52.302;4.634;2023-09-08T10:59:38;11.10;;;10.00;;
56653;SDS011;45096;52.302;4.634;2023-09-08T11:02:05;8.57;;;7.85;;
56653;SDS011;45096;52.302;4.634;2023-09-08T11:04:30;11.20;;;10.00;;
56653;SDS011;45096;52.302;4.634;2023-09-08T11:06:56;13.85;;;10.50;;
56653;SDS011;45096;52.302;4.634;2023-09-08T11:09:22;9.95;;;8.93;;
56653;SDS011;45096;52.302;4.634;2023-09-08T11:11:47;10.48;;;9.57;;
56653;SDS011;45096;52.302;4.634;2023-09-08T11:14:13;10.90;;;9.95;;
56653;SDS011;45096;52.302;4.634;2023-09-08T11:16:38;12.32;;;9.30;;
56653;SDS011;45096;52.302;4.634;2023-09-08T11:19:05;10.23;;;9.32;;
56653;SDS011;45096;52.302;4.634;2023-09-08T11:21:31;10.18;;;9.25;;
56653;SDS011;45096;52.302;4.634;2023-09-08T11:23:57;11.98;;;10.82;;
56653;SDS011;45096;52.302;4.634;2023-09-08T11:26:22;11.27;;;9.65;;
56653;SDS011;45096;52.302;4.634;2023-09-08T11:28:49;9.65;;;8.75;;
56653;SDS011;45096;52.302;4.634;2023-09-08T11:31:14;9.70;;;8.82;;
56653;SDS011;45096;52.302;4.634;2023-09-08T11:33:40;9.05;;;8.23;;
56653;SDS011;45096;52.302;4.634;2023-09-08T11:36:11;9.35;;;8.55;;
56653;SDS011;45096;52.302;4.634;2023-09-08T11:38:37;11.35;;;8.93;;
56653;SDS011;45096;52.302;4.634;2023-09-08T11:41:03;9.30;;;8.40;;
56653;SDS011;45096;52.302;4.634;2023-09-08T11:43:28;9.18;;;8.48;;
56653;SDS011;45096;52.302;4.634;2023-09-08T11:45:53;9.23;;;8.38;;
56653;SDS011;45096;52.302;4.634;2023-09-08T11:48:20;8.63;;;7.82;;
56653;SDS011;45096;52.302;4.634;2023-09-08T11:50:45;11.68;;;10.40;;
56653;SDS011;45096;52.302;4.634;2023-09-08T11:53:12;8.85;;;8.02;;
56653;SDS011;45096;52.302;4.634;2023-09-08T11:55:37;9.73;;;8.57;;
56653;SDS011;45096;52.302;4.634;2023-09-08T11:58:03;8.20;;;7.57;;
56653;SDS011;45096;52.302;4.634;2023-09-08T12:00:29;9.75;;;8.95;;
56653;SDS011;45096;52.302;4.634;2023-09-08T12:02:54;9.13;;;8.15;;
56653;SDS011;45096;52.302;4.634;2023-09-08T12:05:20;11.55;;;10.25;;
56653;SDS011;45096;52.302;4.634;2023-09-08T12:07:46;9.38;;;8.45;;
56653;SDS011;45096;52.302;4.634;2023-09-08T12:10:13;12.73;;;11.00;;
56653;SDS011;45096;52.302;4.634;2023-09-08T12:12:42;10.80;;;9.80;;
56653;SDS011;45096;52.302;4.634;2023-09-08T12:15:09;10.20;;;9.30;;
56653;SDS011;45096;52.302;4.634;2023-09-08T12:17:45;9.70;;;8.90;;
56653;SDS011;45096;52.302;4.634;2023-09-08T12:20:12;8.27;;;7.68;;
56653;SDS011;45096;52.302;4.634;2023-09-08T12:22:39;8.30;;;7.55;;
56653;SDS011;45096;52.302;4.634;2023-09-08T12:25:14;9.18;;;8.40;;
56653;SDS011;45096;52.302;4.634;2023-09-08T12:27:39;9.63;;;8.82;;
56653;SDS011;45096;52.302;4.634;2023-09-08T12:30:05;8.63;;;7.80;;
56653;SDS011;45096;52.302;4.634;2023-09-08T12:32:31;8.05;;;7.28;;
56653;SDS011;45096;52.302;4.634;2023-09-08T12:34:57;8.27;;;7.55;;
56653;SDS011;45096;52.302;4.634;2023-09-08T12:37:23;8.00;;;7.07;;
56653;SDS011;45096;52.302;4.634;2023-09-08T12:39:50;8.02;;;7.32;;
56653;SDS011;45096;52.302;4.634;2023-09-08T12:42:17;8.52;;;7.82;;
56653;SDS011;45096;52.302;4.634;2023-09-08T12:44:43;8.00;;;7.40;;
56653;SDS011;45096;52.302;4.634;2023-09-08T12:47:09;8.15;;;7.55;;
56653;SDS011;45096;52.302;4.634;2023-09-08T12:49:35;8.75;;;7.90;;
56653;SDS011;45096;52.302;4.634;2023-09-08T12:52:01;8.38;;;7.57;;
56653;SDS011;45096;52.302;4.634;2023-09-08T12:54:26;8.68;;;7.75;;
56653;SDS011;45096;52.302;4.634;2023-09-08T12:56:51;7.45;;;6.78;;
56653;SDS011;45096;52.302;4.634;2023-09-08T12:59:18;7.50;;;6.95;;
56653;SDS011;45096;52.302;4.634;2023-09-08T13:01:43;7.45;;;6.82;;
56653;SDS011;45096;52.302;4.634;2023-09-08T13:04:09;7.07;;;6.38;;
56653;SDS011;45096;52.302;4.634;2023-09-08T13:06:34;7.07;;;6.55;;
56653;SDS011;45096;52.302;4.634;2023-09-08T13:09:00;6.18;;;5.70;;
56653;SDS011;45096;52.302;4.634;2023-09-08T13:11:25;6.90;;;6.30;;
56653;SDS011;45096;52.302;4.634;2023-09-08T13:13:50;7.00;;;6.50;;
56653;SDS011;45096;52.302;4.634;2023-09-08T13:16:17;5.82;;;5.53;;
56653;SDS011;45096;52.302;4.634;2023-09-08T13:18:43;6.68;;;6.18;;
56653;SDS011;45096;52.302;4.634;2023-09-08T13:21:08;5.72;;;5.32;;
56653;SDS011;45096;52.302;4.634;2023-09-08T13:23:33;6.97;;;6.20;;
56653;SDS011;45096;52.302;4.634;2023-09-08T13:25:59;6.75;;;6.20;;
56653;SDS011;45096;52.302;4.634;2023-09-08T13:28:24;6.28;;;5.80;;
56653;SDS011;45096;52.302;4.634;2023-09-08T13:30:50;6.47;;;5.93;;
56653;SDS011;45096;52.302;4.634;2023-09-08T13:33:16;5.88;;;5.47;;
56653;SDS011;45096;52.302;4.634;2023-09-08T13:35:42;5.85;;;5.45;;
56653;SDS011;45096;52.302;4.634;2023-09-08T13:38:07;6.80;;;6.10;;
56653;SDS011;45096;52.302;4.634;2023-09-08T13:40:33;8.45;;;6.70;;
56653;SDS011;45096;52.302;4.634;2023-09-08T13:42:58;6.75;;;6.15;;
56653;SDS011;45096;52.302;4.634;2023-09-08T13:45:23;7.47;;;6.93;;
56653;SDS011;45096;52.302;4.634;2023-09-08T13:47:49;6.78;;;6.13;;
56653;SDS011;45096;52.302;4.634;2023-09-08T13:50:16;7.50;;;6.80;;
56653;SDS011;45096;52.302;4.634;2023-09-08T13:52:41;6.78;;;6.18;;
56653;SDS011;45096;52.302;4.634;2023-09-08T13:55:07;5.72;;;5.22;;
56653;SDS011;45096;52.302;4.634;2023-09-08T13:57:33;6.55;;;6.05;;
56653;SDS011;45096;52.302;4.634;2023-09-08T13:59:59;6.82;;;6.00;;
56653;SDS011;45096;52.302;4.634;2023-09-08T14:02:24;6.10;;;5.60;;
56653;SDS011;45096;52.302;4.634;2023-09-08T14:04:49;7.50;;;6.45;;
56653;SDS011;45096;52.302;4.634;2023-09-08T14:07:16;7.53;;;6.88;;
56653;SDS011;45096;52.302;4.634;2023-09-08T14:09:42;6.93;;;6.32;;
56653;SDS011;45096;52.302;4.634;2023-09-08T14:12:07;7.10;;;6.60;;
56653;SDS011;45096;52.302;4.634;2023-09-08T14:14:33;6.88;;;6.28;;
56653;SDS011;45096;52.302;4.634;2023-09-08T14:16:58;7.03;;;6.43;;
56653;SDS011;45096;52.302;4.634;2023-09-08T14:19:23;6.30;;;5.85;;
56653;SDS011;45096;52.302;4.634;2023-09-08T14:21:49;5.93;;;5.53;;
56653;SDS011;45096;52.302;4.634;2023-09-08T14:24:16;6.00;;;5.60;;
56653;SDS011;45096;52.302;4.634;2023-09-08T14:26:41;6.45;;;5.85;;
56653;SDS011;45096;52.302;4.634;2023-09-08T14:29:06;6.57;;;6.18;;
56653;SDS011;45096;52.302;4.634;2023-09-08T14:31:32;5.90;;;5.47;;
56653;SDS011;45096;52.302;4.634;2023-09-08T14:33:57;6.00;;;5.60;;
56653;SDS011;45096;52.302;4.634;2023-09-08T14:36:23;5.43;;;4.78;;